createdAt,value
2022-12-15T00:01:24.816Z,99247.09
2022-12-15T00:04:12.031Z,99246.24
2022-12-15T00:06:59.313Z,99245.36
2022-12-15T00:09:47.740Z,99243.66
2022-12-15T00:12:35.270Z,99235.96
2022-12-15T00:15:23.041Z,99241.01
2022-12-15T00:18:10.797Z,99242.67
2022-12-15T00:20:58.216Z,99233.31
2022-12-15T00:23:45.389Z,99246.13
2022-12-15T00:26:32.473Z,99235.11
2022-12-15T00:29:19.619Z,99228.33
2022-12-15T00:32:07.873Z,99227.52
2022-12-15T00:34:55.459Z,99230.06
2022-12-15T00:37:42.613Z,99232.61
2022-12-15T00:40:13.354Z,99237.70
2022-12-15T00:42:42.146Z,99236.84
2022-12-15T00:45:11.848Z,99224.98
2022-12-15T00:47:40.502Z,99232.61
2022-12-15T00:50:28.418Z,99230.95
2022-12-15T00:53:15.401Z,99229.25
2022-12-15T00:56:02.716Z,99232.72
2022-12-15T00:58:49.781Z,99227.67
2022-12-15T01:01:37.127Z,99215.02
2022-12-15T01:04:24.936Z,99209.16
2022-12-15T01:07:11.938Z,99213.36
2022-12-15T01:09:59.026Z,99221.06
2022-12-15T01:12:46.136Z,99210.89
2022-12-15T01:15:33.204Z,99214.35
2022-12-15T01:18:20.318Z,99215.20
2022-12-15T01:20:56.836Z,99215.23
2022-12-15T01:23:25.978Z,99222.02
2022-12-15T01:25:56.217Z,99224.56
2022-12-15T01:28:26.618Z,99221.24
2022-12-15T01:30:58.408Z,99220.47
2022-12-15T01:33:27.653Z,99217.18
2022-12-15T01:35:59.410Z,99216.37
2022-12-15T01:38:29.869Z,99217.25
2022-12-15T01:41:05.385Z,99219.87
2022-12-15T01:43:36.427Z,99224.07
2022-12-15T01:46:08.027Z,99225.88
2022-12-15T01:48:41.271Z,99225.06
2022-12-15T01:51:18.358Z,99227.61
2022-12-15T01:53:53.328Z,99212.38
2022-12-15T01:56:26.345Z,99215.84
2022-12-15T01:59:00.447Z,99209.86
2022-12-15T02:01:30.303Z,99215.77
2022-12-15T02:04:00.600Z,99214.92
2022-12-15T02:06:30.658Z,99209.86
2022-12-15T02:09:01.189Z,99211.59
2022-12-15T02:11:50.639Z,99210.75
2022-12-15T02:14:31.834Z,99208.20
2022-12-15T02:17:14.527Z,99215.87
2022-12-15T02:20:21.022Z,99223.54
2022-12-15T02:23:16.872Z,99227.81
2022-12-15T02:26:10.207Z,99228.70
2022-12-15T02:28:52.710Z,99227.00
2022-12-15T02:31:46.462Z,99218.55
2022-12-15T02:34:27.093Z,99216.89
2022-12-15T02:37:00.208Z,99221.98
2022-12-15T02:39:30.997Z,99223.68
2022-12-15T02:42:00.489Z,99235.59
2022-12-15T02:44:33.477Z,99239.05
2022-12-15T02:47:27.430Z,99236.51
2022-12-15T02:50:18.258Z,99235.73
2022-12-15T02:52:59.646Z,99238.34
2022-12-15T02:55:39.700Z,99241.73
2022-12-15T02:58:18.626Z,99242.66
2022-12-15T03:00:53.742Z,99240.11
2022-12-15T03:03:23.615Z,99235.02
2022-12-15T03:05:54.211Z,99240.14
2022-12-15T03:08:23.158Z,99240.21
2022-12-15T03:10:54.686Z,99232.61
2022-12-15T03:13:26.140Z,99241.06
2022-12-15T03:15:54.851Z,99237.70
2022-12-15T03:18:23.555Z,99230.87
2022-12-15T03:20:53.945Z,99239.39
2022-12-15T03:23:22.629Z,99235.97
2022-12-15T03:25:52.553Z,99235.12
2022-12-15T03:28:21.263Z,99235.12
2022-12-15T03:30:51.810Z,99239.33
2022-12-15T03:33:22.095Z,99249.52
2022-12-15T03:35:52.111Z,99249.58
2022-12-15T03:38:21.078Z,99255.52
2022-12-15T03:40:51.247Z,99255.52
2022-12-15T03:43:19.973Z,99265.66
2022-12-15T03:45:49.112Z,99269.94
2022-12-15T03:48:19.535Z,99267.33
2022-12-15T03:50:52.419Z,99264.64
2022-12-15T03:53:21.630Z,99268.81
2022-12-15T03:55:52.304Z,99273.05
2022-12-15T03:58:21.027Z,99261.14
2022-12-15T04:00:52.111Z,99262.77
2022-12-15T04:03:21.153Z,99267.02
2022-12-15T04:05:52.586Z,99272.88
2022-12-15T04:08:26.092Z,99272.00
2022-12-15T04:10:54.763Z,99271.08
2022-12-15T04:13:23.434Z,99282.95
2022-12-15T04:15:54.487Z,99287.23
2022-12-15T04:18:23.277Z,99291.50
2022-12-15T04:20:55.097Z,99294.09
2022-12-15T04:23:25.231Z,99298.40
2022-12-15T04:26:12.642Z,99293.31
2022-12-15T04:29:00.215Z,99290.84
2022-12-15T04:31:50.664Z,99286.59
2022-12-15T04:34:40.667Z,99290.88
2022-12-15T04:37:32.423Z,99296.00
2022-12-15T04:40:19.652Z,99305.44
2022-12-15T04:43:07.403Z,99310.52
2022-12-15T04:45:59.575Z,99318.20
2022-12-15T04:48:47.010Z,99313.14
2022-12-15T04:51:34.055Z,99311.41
2022-12-15T04:54:21.482Z,99314.87
2022-12-15T04:57:08.370Z,99325.88
2022-12-15T04:59:55.867Z,99333.51
2022-12-15T05:02:43.324Z,99328.42
2022-12-15T05:05:32.109Z,99334.39
2022-12-15T05:08:19.737Z,99340.33
2022-12-15T05:11:06.621Z,99334.43
2022-12-15T05:13:53.935Z,99338.70
2022-12-15T05:16:42.189Z,99338.70
2022-12-15T05:19:29.116Z,99347.16
2022-12-15T05:22:18.524Z,99358.26
2022-12-15T05:25:05.566Z,99368.44
2022-12-15T05:27:52.863Z,99374.34
2022-12-15T05:30:40.184Z,99377.66
2022-12-15T05:33:09.025Z,99375.93
2022-12-15T05:35:40.102Z,99375.93
2022-12-15T05:38:08.942Z,99374.23
2022-12-15T05:40:39.522Z,99379.33
2022-12-15T05:43:09.024Z,99386.97
2022-12-15T05:45:39.973Z,99398.87
2022-12-15T05:48:08.634Z,99392.05
2022-12-15T05:50:38.003Z,99398.03
2022-12-15T05:53:08.159Z,99415.89
2022-12-15T05:55:38.293Z,99412.53
2022-12-15T05:58:07.912Z,99426.98
2022-12-15T06:00:39.443Z,99425.30
2022-12-15T06:03:08.097Z,99431.27
2022-12-15T06:05:39.094Z,99432.13
2022-12-15T06:08:07.863Z,99435.55
2022-12-15T06:10:39.537Z,99444.92
2022-12-15T06:13:09.573Z,99455.95
2022-12-15T06:15:42.439Z,99461.13
2022-12-15T06:18:11.435Z,99468.76
2022-12-15T06:20:40.992Z,99466.21
2022-12-15T06:23:11.570Z,99478.17
2022-12-15T06:25:42.145Z,99474.73
2022-12-15T06:28:11.963Z,99483.27
2022-12-15T06:30:43.427Z,99484.19
2022-12-15T06:33:13.284Z,99488.47
2022-12-15T06:35:42.651Z,99489.32
2022-12-15T06:38:12.664Z,99496.15
2022-12-15T06:40:42.818Z,99496.95
2022-12-15T06:43:12.215Z,99515.63
2022-12-15T06:45:49.906Z,99513.09
2022-12-15T06:48:22.374Z,99520.72
2022-12-15T06:50:57.769Z,99518.25
2022-12-15T06:53:26.523Z,99521.61
2022-12-15T06:56:02.332Z,99527.52
2022-12-15T06:58:31.001Z,99531.80
2022-12-15T07:01:04.773Z,99533.45
2022-12-15T07:03:34.552Z,99544.53
2022-12-15T07:06:05.932Z,99545.45
2022-12-15T07:08:41.178Z,99545.45
2022-12-15T07:11:12.557Z,99552.28
2022-12-15T07:13:41.540Z,99559.96
2022-12-15T07:16:12.145Z,99558.34
2022-12-15T07:18:40.965Z,99558.38
2022-12-15T07:21:10.707Z,99566.02
2022-12-15T07:23:54.023Z,99566.09
2022-12-15T07:26:25.490Z,99575.44
2022-12-15T07:28:54.620Z,99578.91
2022-12-15T07:31:23.785Z,99590.91
2022-12-15T07:33:54.050Z,99596.00
2022-12-15T07:36:23.389Z,99601.14
2022-12-15T07:38:56.787Z,99600.38
2022-12-15T07:41:25.719Z,99608.12
2022-12-15T07:43:54.733Z,99619.25
2022-12-15T07:46:25.257Z,99614.16
2022-12-15T07:48:54.557Z,99616.78
2022-12-15T07:51:23.358Z,99622.80
2022-12-15T07:53:52.762Z,99628.87
2022-12-15T07:56:21.509Z,99640.06
2022-12-15T07:58:52.587Z,99632.45
2022-12-15T08:01:21.547Z,99639.29
2022-12-15T08:03:50.609Z,99641.88
2022-12-15T08:06:20.690Z,99649.59
2022-12-15T08:08:50.659Z,99654.73
2022-12-15T08:11:24.135Z,99653.88
2022-12-15T08:14:02.927Z,99660.76
2022-12-15T08:16:34.035Z,99662.49
2022-12-15T08:19:04.757Z,99663.42
2022-12-15T08:21:34.216Z,99669.41
2022-12-15T08:24:03.824Z,99670.41
2022-12-15T08:26:32.672Z,99676.48
2022-12-15T08:29:31.791Z,99679.11
2022-12-15T08:31:54.659Z,99687.75
2022-12-15T08:34:24.004Z,99688.72
2022-12-15T08:36:55.414Z,99694.79
2022-12-15T08:39:24.112Z,99697.50
2022-12-15T08:41:55.786Z,99697.53
2022-12-15T08:44:24.608Z,99696.80
2022-12-15T08:46:53.859Z,99700.23
2022-12-15T08:49:22.960Z,99699.42
2022-12-15T08:51:51.954Z,99707.15
2022-12-15T08:54:21.537Z,99710.63
2022-12-15T08:56:50.453Z,99711.52
2022-12-15T08:59:19.658Z,99707.42
2022-12-15T09:01:48.706Z,99716.08
2022-12-15T09:04:18.060Z,99719.59
2022-12-15T09:06:50.607Z,99726.58
2022-12-15T09:09:20.382Z,99724.99
2022-12-15T09:11:49.418Z,99726.84
2022-12-15T09:14:21.564Z,99727.77
2022-12-15T09:16:56.779Z,99729.43
2022-12-15T09:19:27.373Z,99732.05
2022-12-15T09:21:56.450Z,99737.20
2022-12-15T09:24:34.268Z,99744.73
2022-12-15T09:27:04.475Z,99754.09
2022-12-15T09:29:33.733Z,99746.39
2022-12-15T09:32:04.067Z,99754.09
2022-12-15T09:34:35.952Z,99755.83
2022-12-15T09:37:04.692Z,99761.89
2022-12-15T09:39:33.502Z,99754.28
2022-12-15T09:42:02.334Z,99760.31
2022-12-15T09:44:33.054Z,99762.20
2022-12-15T09:47:24.715Z,99758.94
2022-12-15T09:49:58.192Z,99762.49
2022-12-15T09:52:30.003Z,99762.60
2022-12-15T09:55:01.171Z,99766.04
2022-12-15T09:57:40.287Z,99764.34
2022-12-15T10:00:17.168Z,99772.70
2022-12-15T10:03:24.414Z,99768.33
2022-12-15T10:06:16.104Z,99770.73
2022-12-15T10:08:50.700Z,99777.73
2022-12-15T10:11:35.809Z,99778.80
2022-12-15T10:14:14.263Z,99776.29
2022-12-15T10:16:55.590Z,99777.14
2022-12-15T10:19:31.465Z,99778.80
2022-12-15T10:22:00.830Z,99797.52
2022-12-15T10:25:07.994Z,99797.52
2022-12-15T10:28:02.144Z,99798.30
2022-12-15T10:30:31.199Z,99810.28
2022-12-15T10:33:03.620Z,99810.24
2022-12-15T10:35:37.115Z,99813.53
2022-12-15T10:38:16.191Z,99811.88
2022-12-15T10:40:50.336Z,99815.27
2022-12-15T10:43:40.343Z,99819.56
2022-12-15T10:46:14.355Z,99824.59
2022-12-15T10:48:43.626Z,99823.66
2022-12-15T10:51:19.301Z,99828.77
2022-12-15T10:53:51.146Z,99830.51
2022-12-15T10:56:28.833Z,99824.41
2022-12-15T10:59:04.045Z,99831.01
2022-12-15T11:01:35.097Z,99831.66
2022-12-15T11:04:05.512Z,99841.80
2022-12-15T11:06:36.317Z,99840.06
2022-12-15T11:09:26.755Z,99840.71
2022-12-15T11:12:15.051Z,99850.59
2022-12-15T11:14:46.305Z,99854.68
2022-12-15T11:17:18.394Z,99853.67
2022-12-15T11:19:58.198Z,99861.33
2022-12-15T11:22:46.761Z,99857.88
2022-12-15T11:25:34.028Z,99864.59
2022-12-15T11:28:06.778Z,99873.87
2022-12-15T11:30:42.971Z,99874.67
2022-12-15T11:33:11.912Z,99878.84
2022-12-15T11:35:57.411Z,99884.75
2022-12-15T11:38:34.906Z,99885.64
2022-12-15T11:41:13.131Z,99888.92
2022-12-15T11:47:06.626Z,99890.41
2022-12-15T11:49:55.016Z,99890.45
2022-12-15T11:52:50.302Z,99898.95
2022-12-15T11:55:32.151Z,99898.09
2022-12-15T11:58:32.726Z,99895.59
2022-12-15T12:01:09.854Z,99904.13
2022-12-15T12:03:54.876Z,99910.97
2022-12-15T12:06:32.466Z,99917.81
2022-12-15T12:09:17.945Z,99916.87
2022-12-15T12:11:55.208Z,99915.14
2022-12-15T12:14:39.101Z,99927.08
2022-12-15T12:17:14.354Z,99925.38
2022-12-15T12:19:47.124Z,99929.62
2022-12-15T12:22:25.773Z,99938.09
2022-12-15T12:25:00.056Z,99937.95
2022-12-15T12:27:33.756Z,99942.13
2022-12-15T12:30:06.473Z,99940.51
2022-12-15T12:32:47.137Z,99940.46
2022-12-15T12:35:30.690Z,99942.08
2022-12-15T12:38:04.630Z,99943.02
2022-12-15T12:40:52.347Z,99951.52
2022-12-15T12:43:32.686Z,99948.92
2022-12-15T12:46:09.744Z,99952.23
2022-12-15T12:48:43.400Z,99958.01
2022-12-15T12:51:25.448Z,99959.75
2022-12-15T12:53:56.609Z,99969.01
2022-12-15T12:56:39.996Z,99958.81
2022-12-15T12:59:35.862Z,99969.01
2022-12-15T13:02:37.800Z,99969.77
2022-12-15T13:05:31.070Z,99984.17
2022-12-15T13:08:50.843Z,99985.82
2022-12-15T13:11:57.023Z,99996.69
2022-12-15T13:14:42.526Z,99997.50
2022-12-15T13:17:26.568Z,99990.66
2022-12-15T13:20:25.931Z,99994.81
2022-12-15T13:23:18.276Z,99994.63
2022-12-15T13:26:05.400Z,99999.55
2022-12-15T13:28:48.574Z,100002.05
2022-12-15T13:31:29.868Z,100012.16
2022-12-15T13:34:23.768Z,100023.05
2022-12-15T13:37:02.412Z,100020.37
2022-12-15T13:39:50.737Z,100032.16
2022-12-15T13:42:41.605Z,100035.47
2022-12-15T13:45:50.236Z,100031.92
2022-12-15T13:48:31.797Z,100035.27
2022-12-15T13:51:14.686Z,100047.07
2022-12-15T13:53:51.644Z,100051.84
2022-12-15T13:56:28.501Z,100056.59
2022-12-15T13:59:05.264Z,100068.42
2022-12-15T14:01:34.154Z,100067.28
2022-12-15T14:04:15.132Z,100065.25
2022-12-15T14:06:48.527Z,100065.85
2022-12-15T14:09:25.819Z,100064.00
2022-12-15T14:11:55.108Z,100060.50
2022-12-15T14:14:28.976Z,100067.20
2022-12-15T14:17:02.231Z,100063.70
2022-12-15T14:19:43.363Z,100071.28
2022-12-15T14:22:28.021Z,100064.39
2022-12-15T14:25:12.931Z,100066.80
2022-12-15T14:27:41.893Z,100064.84
2022-12-15T14:30:22.024Z,100059.75
2022-12-15T14:32:54.424Z,100061.30
2022-12-15T14:35:30.598Z,100064.64
2022-12-15T14:38:06.618Z,100061.95
2022-12-15T14:40:49.212Z,100069.44
2022-12-15T14:43:22.732Z,100068.58
2022-12-15T14:45:57.041Z,100071.06
2022-12-15T14:48:42.322Z,100074.41
2022-12-15T14:51:14.357Z,100074.47
2022-12-15T14:53:48.073Z,100080.50
2022-12-15T14:56:30.299Z,100071.92
2022-12-15T14:59:03.568Z,100084.64
2022-12-15T15:01:40.444Z,100086.34
2022-12-15T15:03:10.905Z,99882.92
2022-12-15T15:04:25.569Z,100087.25
2022-12-15T15:06:58.277Z,100088.05
2022-12-15T15:09:29.872Z,100092.28
2022-12-15T15:12:03.765Z,100097.37
2022-12-15T15:14:38.279Z,100099.11
2022-12-15T15:17:17.041Z,100105.06
2022-12-15T15:19:50.855Z,100112.69
2022-12-15T15:22:36.777Z,100108.41
2022-12-15T15:50:31.938Z,100129.63
2022-12-15T15:53:00.647Z,100136.52
2022-12-15T15:55:39.417Z,100136.52
2022-12-15T15:58:14.817Z,100144.22
2022-12-15T16:00:44.244Z,100149.31
2022-12-15T16:03:13.302Z,100144.30
2022-12-15T16:05:43.334Z,100146.91
2022-12-15T16:08:17.349Z,100155.34
2022-12-15T16:10:48.534Z,100157.03
2022-12-15T16:13:25.529Z,100163.88
2022-12-15T16:15:57.483Z,100179.20
2022-12-15T16:18:29.183Z,100190.34
2022-12-15T16:21:02.492Z,100186.99
2022-12-15T16:23:31.382Z,100200.67
2022-12-15T16:26:13.998Z,100200.73
2022-12-15T16:28:43.188Z,100199.98
2022-12-15T16:31:15.935Z,100202.63
2022-12-15T16:33:44.889Z,100206.09
2022-12-15T16:36:14.805Z,100208.72
2022-12-15T16:38:43.727Z,100214.67
2022-12-15T16:41:16.941Z,100216.42
2022-12-15T16:43:48.093Z,100217.31
2022-12-15T16:46:17.439Z,100225.02
2022-12-15T16:48:48.434Z,100227.62
2022-12-15T16:51:27.582Z,100225.87
2022-12-15T16:53:58.345Z,100234.45
2022-12-15T16:56:27.335Z,100230.16
2022-12-15T16:59:23.782Z,100232.80
2022-12-15T17:01:47.879Z,100234.61
2022-12-15T17:04:16.955Z,100233.81
2022-12-15T17:06:46.233Z,100234.67
2022-12-15T17:09:21.615Z,100243.25
2022-12-15T17:12:05.112Z,100244.95
2022-12-15T17:14:37.424Z,100247.55
2022-12-15T17:17:12.920Z,100247.61
2022-12-15T17:19:57.999Z,100245.95
2022-12-15T17:22:32.302Z,100246.81
2022-12-15T17:25:02.025Z,100245.95
2022-12-15T17:27:31.544Z,100235.02
2022-12-15T17:30:02.569Z,100237.63
2022-12-15T17:32:36.469Z,100236.83
2022-12-15T17:35:21.554Z,100233.48
2022-12-15T17:37:54.852Z,100231.83
2022-12-15T17:40:24.702Z,100231.03
2022-12-15T17:42:53.793Z,100231.03
2022-12-15T17:45:26.196Z,100230.23
2022-12-15T17:47:55.904Z,100231.08
2022-12-15T17:50:25.740Z,100231.88
2022-12-15T17:52:58.146Z,100244.63
2022-12-15T17:55:34.589Z,100231.88
2022-12-15T17:58:18.529Z,100231.03
2022-12-15T18:00:50.090Z,100222.50
2022-12-15T18:03:21.435Z,100226.79
2022-12-15T18:05:52.148Z,100236.92
2022-12-15T18:08:23.418Z,100231.83
2022-12-15T18:10:54.796Z,100241.22
2022-12-15T18:13:27.948Z,100228.39
2022-12-15T18:16:01.848Z,100241.13
2022-12-15T18:18:32.207Z,100243.77
2022-12-15T18:21:12.460Z,100237.92
2022-12-15T18:23:44.936Z,100243.82
2022-12-15T18:26:14.962Z,100236.18
2022-12-15T18:28:44.972Z,100248.91
2022-12-15T18:31:20.217Z,100257.41
2022-12-15T18:33:50.061Z,100251.47
2022-12-15T18:36:20.921Z,100253.20
2022-12-15T18:38:50.187Z,100263.45
2022-12-15T18:41:20.873Z,100264.41
2022-12-15T18:43:50.389Z,100262.75
2022-12-15T18:46:19.772Z,100262.81
2022-12-15T18:48:48.678Z,100264.55
2022-12-15T18:51:20.133Z,100271.40
2022-12-15T18:53:49.435Z,100264.61
2022-12-15T18:56:21.001Z,100262.95
2022-12-15T18:58:50.308Z,100267.10
2022-12-15T19:01:20.105Z,100264.55
2022-12-15T19:03:50.021Z,100278.09
2022-12-15T19:06:25.963Z,100275.55
2022-12-15T19:08:55.503Z,100284.94
2022-12-15T19:11:30.361Z,100291.69
2022-12-15T19:14:01.619Z,100290.03
2022-12-15T19:16:51.802Z,100289.23
2022-12-15T19:19:39.764Z,100285.88
2022-12-15T19:22:30.112Z,100287.55
2022-12-15T19:25:05.395Z,100291.04
2022-12-15T19:27:34.443Z,100291.90
2022-12-15T19:30:13.968Z,100292.84
2022-12-15T19:32:47.963Z,100291.19
2022-12-15T19:35:20.345Z,100291.19
2022-12-15T19:37:49.764Z,100297.14
2022-12-15T19:40:22.104Z,100293.80
2022-12-15T19:42:55.548Z,100291.31
2022-12-15T19:45:27.105Z,100295.55
2022-12-15T19:47:57.062Z,100290.39
2022-12-15T19:50:28.681Z,100288.64
2022-12-15T19:53:01.232Z,100282.66
2022-12-15T19:55:34.635Z,100283.45
2022-12-15T19:58:27.698Z,100273.15
2022-12-15T20:01:04.239Z,100273.86
2022-12-15T20:03:34.641Z,100272.94
2022-12-15T20:06:11.044Z,100265.20
2022-12-15T20:08:45.148Z,100273.65
2022-12-15T20:11:19.367Z,100278.74
2022-12-15T20:13:50.182Z,100271.90
2022-12-15T20:16:20.018Z,100276.88
2022-12-15T20:18:50.888Z,100284.37
2022-12-15T20:21:22.982Z,100284.16
2022-12-15T20:23:56.140Z,100276.21
2022-12-15T20:26:26.092Z,100282.84
2022-12-15T20:28:54.817Z,100283.36
2022-12-15T20:31:25.143Z,100285.39
2022-12-15T20:33:54.388Z,100286.77
2022-12-15T20:36:26.167Z,100282.83
2022-12-15T20:38:56.216Z,100285.60
2022-12-15T20:41:27.008Z,100296.12
2022-12-15T20:43:57.260Z,100295.01
2022-12-15T20:46:33.442Z,100290.55
2022-12-15T20:49:04.097Z,100284.38
2022-12-15T20:51:33.572Z,100284.16
2022-12-15T20:54:03.365Z,100290.44
2022-12-15T20:56:32.333Z,100283.70
2022-12-15T20:59:01.770Z,100290.00
2022-12-15T21:01:34.740Z,100294.06
2022-12-15T21:04:16.560Z,100293.10
2022-12-15T21:06:52.837Z,100297.95
2022-12-15T21:09:24.022Z,100299.46
2022-12-15T21:11:54.650Z,100299.23
2022-12-15T21:14:24.839Z,100297.23
2022-12-15T21:16:53.666Z,100302.86
2022-12-15T21:19:23.259Z,100306.03
2022-12-15T21:21:55.248Z,100298.16
2022-12-15T21:24:25.986Z,100301.80
2022-12-15T21:26:55.156Z,100297.12
2022-12-15T21:29:27.313Z,100297.66
2022-12-15T21:31:56.045Z,100305.96
2022-12-15T21:34:24.765Z,100304.14
2022-12-15T21:36:55.267Z,100306.43
2022-12-15T21:39:28.893Z,100307.58
2022-12-15T21:42:00.368Z,100307.78
2022-12-15T21:44:29.486Z,100306.31
2022-12-15T21:46:58.262Z,100307.70
2022-12-15T21:49:28.698Z,100302.55
2022-12-15T21:52:00.700Z,100312.70
2022-12-15T21:54:32.726Z,100305.88
2022-12-15T21:57:03.691Z,100306.48
2022-12-15T21:59:33.317Z,100302.12
2022-12-15T22:02:18.264Z,100296.00
2022-12-15T22:04:51.557Z,100292.67
2022-12-15T22:07:21.177Z,100296.18
2022-12-15T22:09:51.155Z,100287.86
2022-12-15T22:12:23.331Z,100288.05
2022-12-15T22:14:52.807Z,100287.15
2022-12-15T22:17:22.433Z,100290.58
2022-12-15T22:19:52.587Z,100301.77
2022-12-15T22:22:23.771Z,100309.56
2022-12-15T22:24:54.489Z,100307.17
2022-12-15T22:27:33.570Z,100306.49
2022-12-15T22:30:03.892Z,100312.50
2022-12-15T22:32:33.000Z,100321.19
2022-12-15T22:35:02.155Z,100323.80
2022-12-15T22:37:30.888Z,100334.91
2022-12-15T22:40:00.837Z,100333.23
2022-12-15T22:42:29.578Z,100335.09
2022-12-15T22:44:58.708Z,100340.32
2022-12-15T22:47:30.258Z,100345.51
2022-12-15T22:49:59.053Z,100341.36
2022-12-15T22:52:30.899Z,100331.20
2022-12-15T22:55:00.694Z,100328.52
2022-12-15T22:57:30.415Z,100328.59
2022-12-15T23:00:05.109Z,100329.56
2022-12-15T23:02:36.133Z,100332.96
2022-12-15T23:05:06.842Z,100332.28
2022-12-15T23:07:35.950Z,100323.06
2022-12-15T23:10:24.730Z,100321.48
2022-12-15T23:12:54.303Z,100320.70
2022-12-15T23:15:42.823Z,100326.73
2022-12-15T23:18:12.832Z,100326.03
2022-12-15T23:20:42.855Z,100326.13
2022-12-15T23:23:11.872Z,100326.27
2022-12-15T23:25:43.699Z,100329.78
2022-12-15T23:28:15.537Z,100328.98
2022-12-15T23:30:49.341Z,100329.95
2022-12-15T23:33:18.643Z,100328.37
2022-12-15T23:35:48.767Z,100330.92
2022-12-15T23:38:17.686Z,100335.28
2022-12-15T23:40:51.090Z,100342.19
2022-12-15T23:43:22.669Z,100330.38
2022-12-15T23:45:58.019Z,100327.98
2022-12-15T23:48:31.406Z,100330.62
2022-12-15T23:51:11.971Z,100325.55
2022-12-15T23:53:42.734Z,100325.61
2022-12-15T23:56:13.889Z,100330.80
2022-12-15T23:58:44.810Z,100325.79
